createdAt,value
2022-08-30T00:00:59.614Z,2.60
2022-08-30T00:03:52.214Z,2.30
2022-08-30T00:06:34.092Z,2.40
2022-08-30T00:09:21.057Z,2.40
2022-08-30T00:12:09.069Z,2.47
2022-08-30T00:14:56.077Z,2.55
2022-08-30T00:17:43.054Z,2.47
2022-08-30T00:20:35.093Z,2.25
2022-08-30T00:23:15.135Z,2.60
2022-08-30T00:26:09.045Z,2.78
2022-08-30T00:28:56.125Z,2.30
2022-08-30T00:31:37.057Z,2.70
2022-08-30T00:34:24.073Z,2.35
2022-08-30T00:37:04.118Z,2.25
2022-08-30T00:39:51.064Z,2.65
2022-08-30T00:42:50.678Z,2.50
2022-08-30T00:45:41.052Z,2.17
2022-08-30T00:48:21.142Z,2.78
2022-08-30T00:51:12.068Z,2.70
2022-08-30T00:54:04.082Z,2.83
2022-08-30T00:57:00.060Z,2.97
2022-08-30T00:59:51.108Z,2.90
2022-08-30T01:02:34.113Z,2.58
2022-08-30T01:05:22.098Z,3.00
2022-08-30T01:08:02.065Z,2.72
2022-08-30T01:10:50.064Z,2.78
2022-08-30T01:13:32.125Z,2.97
2022-08-30T01:16:19.146Z,2.90
2022-08-30T01:19:03.111Z,2.83
2022-08-30T01:22:03.078Z,2.90
2022-08-30T01:24:51.058Z,2.90
2022-08-30T01:27:38.081Z,3.50
2022-08-30T01:30:19.122Z,2.75
2022-08-30T01:33:09.167Z,3.00
2022-08-30T01:35:59.142Z,3.20
2022-08-30T01:38:54.053Z,3.10
2022-08-30T01:41:50.066Z,3.10
2022-08-30T01:44:37.054Z,3.25
2022-08-30T01:47:18.464Z,2.90
2022-08-30T01:50:05.065Z,3.22
2022-08-30T01:52:46.121Z,3.08
2022-08-30T01:55:33.063Z,3.13
2022-08-30T01:58:20.060Z,3.45
2022-08-30T02:01:07.100Z,3.15
2022-08-30T02:03:49.207Z,3.55
2022-08-30T02:06:36.074Z,2.80
2022-08-30T02:09:16.120Z,3.40
2022-08-30T02:12:03.087Z,3.38
2022-08-30T02:14:44.133Z,2.78
2022-08-30T02:17:31.081Z,3.33
2022-08-30T02:20:12.124Z,4.00
2022-08-30T02:23:01.423Z,3.50
2022-08-30T02:25:41.589Z,3.40
2022-08-30T02:28:28.065Z,3.40
2022-08-30T02:31:09.230Z,3.30
2022-08-30T02:33:58.077Z,3.45
2022-08-30T02:36:47.080Z,3.42
2022-08-30T02:39:34.145Z,3.25
2022-08-30T02:42:14.076Z,3.33
2022-08-30T02:44:54.568Z,3.65
2022-08-30T02:47:46.271Z,3.70
2022-08-30T02:50:33.359Z,3.42
2022-08-30T02:53:16.084Z,3.33
2022-08-30T02:55:56.585Z,3.67
2022-08-30T02:58:38.097Z,3.95
2022-08-30T03:01:21.181Z,3.72
2022-08-30T03:04:08.106Z,3.63
2022-08-30T03:06:48.405Z,3.75
2022-08-30T03:09:35.073Z,3.40
2022-08-30T03:12:18.139Z,4.13
2022-08-30T03:15:05.096Z,3.92
2022-08-30T03:17:46.141Z,3.50
2022-08-30T03:20:33.090Z,3.42
2022-08-30T03:23:20.156Z,3.53
2022-08-30T03:26:09.093Z,3.30
2022-08-30T03:28:50.123Z,3.80
2022-08-30T03:31:52.618Z,3.50
2022-08-30T03:34:34.194Z,3.50
2022-08-30T03:37:25.572Z,3.88
2022-08-30T03:40:14.116Z,3.95
2022-08-30T03:43:08.103Z,3.90
2022-08-30T03:45:55.132Z,4.05
2022-08-30T03:48:36.154Z,3.78
2022-08-30T03:51:23.097Z,4.13
2022-08-30T03:54:03.137Z,3.45
2022-08-30T03:56:50.104Z,3.58
2022-08-30T03:59:30.161Z,3.67
2022-08-30T04:02:17.161Z,4.00
2022-08-30T04:05:04.086Z,4.00
2022-08-30T04:07:51.090Z,3.75
2022-08-30T04:10:38.091Z,3.50
2022-08-30T04:13:32.097Z,4.05
2022-08-30T04:16:19.156Z,3.70
2022-08-30T04:18:59.140Z,3.88
2022-08-30T04:21:46.108Z,3.40
2022-08-30T04:24:26.141Z,3.65
2022-08-30T04:27:13.092Z,3.78
2022-08-30T04:29:56.307Z,4.13
2022-08-30T04:32:43.082Z,3.70
2022-08-30T04:35:23.150Z,3.42
2022-08-30T04:38:10.089Z,3.90
2022-08-30T04:40:52.474Z,4.10
2022-08-30T04:43:41.096Z,3.58
2022-08-30T04:46:21.177Z,4.10
2022-08-30T04:49:09.106Z,3.70
2022-08-30T04:51:49.135Z,3.97
2022-08-30T04:54:36.105Z,3.67
2022-08-30T04:57:16.154Z,3.53
2022-08-30T05:00:03.104Z,4.30
2022-08-30T05:02:43.559Z,3.70
2022-08-30T05:05:48.089Z,4.25
2022-08-30T05:08:36.122Z,4.10
2022-08-30T05:11:17.605Z,4.32
2022-08-30T05:14:04.102Z,3.85
2022-08-30T05:16:52.094Z,4.13
2022-08-30T05:19:33.657Z,3.67
2022-08-30T05:22:20.106Z,3.53
2022-08-30T05:25:00.172Z,4.00
2022-08-30T05:27:47.106Z,4.25
2022-08-30T05:30:28.161Z,3.90
2022-08-30T05:33:15.082Z,3.92
2022-08-30T05:35:55.148Z,3.67
2022-08-30T05:38:42.095Z,3.83
2022-08-30T05:41:22.189Z,3.15
2022-08-30T05:44:11.103Z,3.85
2022-08-30T05:46:51.179Z,3.50
2022-08-30T05:49:38.135Z,3.50
2022-08-30T05:52:18.265Z,3.72
2022-08-30T05:55:06.109Z,3.17
2022-08-30T05:57:47.173Z,3.05
2022-08-30T06:00:37.113Z,2.72
2022-08-30T06:03:24.128Z,2.50
2022-08-30T06:06:14.109Z,3.05
2022-08-30T06:08:55.174Z,2.28
2022-08-30T06:11:43.087Z,2.50
2022-08-30T06:14:23.162Z,2.40
2022-08-30T06:17:10.093Z,2.58
2022-08-30T06:19:50.165Z,2.33
2022-08-30T06:22:37.100Z,2.30
2022-08-30T06:25:18.144Z,2.58
2022-08-30T06:28:05.109Z,2.58
2022-08-30T06:30:54.118Z,2.47
2022-08-30T06:33:41.171Z,2.17
2022-08-30T06:36:29.159Z,2.67
2022-08-30T06:39:16.255Z,2.30
2022-08-30T06:41:56.112Z,2.13
2022-08-30T06:44:46.146Z,2.00
2022-08-30T06:47:26.116Z,2.30
2022-08-30T06:50:14.115Z,1.90
2022-08-30T06:52:54.182Z,2.00
2022-08-30T06:55:44.104Z,1.90
2022-08-30T06:58:24.182Z,2.13
2022-08-30T07:01:12.105Z,2.05
2022-08-30T07:03:59.118Z,2.10
2022-08-30T07:06:46.172Z,1.80
2022-08-30T07:09:26.165Z,1.70
2022-08-30T07:12:13.122Z,1.73
2022-08-30T07:15:00.167Z,1.60
2022-08-30T07:18:06.129Z,1.63
2022-08-30T07:20:46.173Z,1.50
2022-08-30T07:23:33.118Z,1.67
2022-08-30T07:26:15.172Z,1.50
2022-08-30T07:29:03.119Z,1.60
2022-08-30T07:31:43.242Z,1.40
2022-08-30T07:34:30.127Z,1.30
2022-08-30T07:37:18.201Z,0.98
2022-08-30T07:40:05.221Z,1.30
2022-08-30T07:42:47.110Z,1.13
2022-08-30T07:45:35.464Z,1.08
2022-08-30T07:48:18.125Z,1.00
2022-08-30T07:51:05.606Z,1.10
2022-08-30T07:53:45.129Z,1.10
2022-08-30T07:56:32.193Z,1.38
2022-08-30T07:59:12.129Z,1.20
2022-08-30T08:01:59.177Z,1.10
2022-08-30T08:04:46.134Z,1.00
2022-08-30T08:07:26.601Z,0.90
2022-08-30T08:10:13.137Z,1.52
2022-08-30T08:12:53.626Z,0.90
2022-08-30T08:15:42.172Z,1.20
2022-08-30T08:18:29.229Z,1.00
2022-08-30T08:21:10.129Z,0.90
2022-08-30T08:23:57.191Z,0.90
2022-08-30T08:26:37.138Z,1.10
2022-08-30T08:29:17.633Z,1.20
2022-08-30T08:32:04.135Z,0.93
2022-08-30T08:34:44.622Z,1.00
2022-08-30T08:37:31.162Z,1.02
2022-08-30T08:40:22.699Z,1.00
2022-08-30T08:43:21.143Z,1.10
2022-08-30T08:46:23.268Z,1.27
2022-08-30T08:49:12.150Z,0.98
2022-08-30T08:52:19.792Z,1.00
2022-08-30T08:55:04.139Z,1.10
2022-08-30T08:57:52.403Z,1.17
2022-08-30T09:00:32.139Z,0.80
2022-08-30T09:03:16.334Z,1.10
2022-08-30T09:06:05.143Z,1.00
2022-08-30T09:08:52.260Z,1.00
2022-08-30T09:11:35.137Z,1.20
2022-08-30T09:14:46.088Z,0.90
2022-08-30T09:17:35.147Z,1.10
2022-08-30T09:20:32.142Z,1.20
2022-08-30T09:23:32.435Z,1.02
2022-08-30T09:26:20.177Z,1.35
2022-08-30T09:29:00.981Z,1.00
2022-08-30T09:32:24.650Z,0.98
2022-08-30T09:35:07.167Z,1.00
2022-08-30T09:38:09.164Z,1.00
2022-08-30T09:41:09.173Z,1.08
2022-08-30T09:44:31.517Z,1.02
2022-08-30T09:47:13.163Z,1.13
2022-08-30T09:50:12.148Z,1.05
2022-08-30T09:53:12.200Z,1.13
2022-08-30T09:56:18.153Z,1.15
2022-08-30T09:59:34.147Z,1.10
2022-08-30T10:02:59.285Z,1.10
2022-08-30T10:05:59.150Z,1.10
2022-08-30T10:08:49.525Z,1.08
2022-08-30T10:11:35.146Z,1.20
2022-08-30T10:14:33.219Z,1.10
2022-08-30T10:17:48.170Z,1.00
2022-08-30T10:20:48.180Z,1.00
2022-08-30T10:23:35.225Z,1.15
2022-08-30T10:26:28.173Z,1.23
2022-08-30T10:29:17.366Z,1.10
2022-08-30T10:32:24.170Z,1.10
2022-08-30T10:35:19.227Z,1.05
2022-08-30T10:38:21.162Z,1.27
2022-08-30T10:41:15.146Z,1.05
2022-08-30T10:44:20.161Z,1.00
2022-08-30T10:47:37.175Z,1.10
2022-08-30T10:50:31.848Z,1.30
2022-08-30T10:53:22.204Z,0.90
2022-08-30T10:56:15.164Z,1.20
2022-08-30T10:59:02.185Z,1.27
2022-08-30T11:02:24.177Z,1.20
2022-08-30T11:05:27.245Z,0.98
2022-08-30T11:08:30.173Z,1.20
2022-08-30T11:11:41.171Z,1.10
2022-08-30T11:14:30.205Z,1.20
2022-08-30T11:17:11.091Z,1.10
2022-08-30T11:20:00.190Z,1.27
2022-08-30T11:22:50.186Z,1.27
2022-08-30T11:25:56.784Z,1.00
2022-08-30T11:28:50.205Z,1.17
2022-08-30T11:31:45.316Z,1.20
2022-08-30T11:34:52.222Z,1.20
2022-08-30T11:37:38.566Z,1.30
2022-08-30T11:40:34.195Z,1.27
2022-08-30T11:43:43.199Z,1.20
2022-08-30T11:46:32.344Z,1.10
2022-08-30T11:49:23.393Z,1.00
2022-08-30T11:52:27.211Z,1.20
2022-08-30T11:55:28.589Z,1.10
2022-08-30T11:58:38.198Z,1.35
2022-08-30T12:01:54.992Z,1.00
2022-08-30T12:04:42.221Z,1.20
2022-08-30T12:08:03.262Z,1.05
2022-08-30T12:10:53.210Z,1.20
2022-08-30T12:13:39.978Z,1.27
2022-08-30T12:16:29.238Z,1.15
2022-08-30T12:19:24.245Z,1.20
2022-08-30T12:22:09.205Z,1.10
2022-08-30T12:24:54.025Z,1.25
2022-08-30T12:27:45.203Z,1.00
2022-08-30T12:30:28.014Z,1.15
2022-08-30T12:33:14.208Z,1.15
2022-08-30T12:36:03.184Z,1.20
2022-08-30T12:38:43.355Z,1.08
2022-08-30T12:41:30.194Z,1.27
2022-08-30T12:44:38.218Z,1.17
2022-08-30T12:47:39.207Z,1.35
2022-08-30T12:50:24.350Z,1.10
2022-08-30T12:53:18.249Z,1.20
2022-08-30T12:56:05.291Z,1.23
2022-08-30T12:58:57.217Z,1.27
2022-08-30T13:01:48.295Z,1.23
2022-08-30T13:04:44.221Z,1.20
2022-08-30T13:07:42.272Z,1.23
2022-08-30T13:10:31.222Z,1.25
2022-08-30T13:13:13.296Z,1.20
2022-08-30T13:16:02.300Z,1.00
2022-08-30T13:18:42.274Z,1.30
2022-08-30T13:21:40.219Z,1.38
2022-08-30T13:24:24.801Z,1.13
2022-08-30T13:27:16.213Z,1.25
2022-08-30T13:29:56.301Z,1.10
2022-08-30T13:32:45.231Z,1.30
2022-08-30T13:35:25.329Z,1.50
2022-08-30T13:38:12.274Z,1.40
2022-08-30T13:40:59.215Z,1.35
2022-08-30T13:50:03.285Z,1.58
2022-08-30T13:52:50.231Z,1.65
2022-08-30T13:55:37.226Z,2.05
2022-08-30T13:58:18.339Z,1.38
2022-08-30T14:01:05.280Z,1.63
2022-08-30T14:13:07.758Z,1.70
2022-08-30T14:19:03.228Z,1.65
2022-08-30T14:21:51.293Z,1.60
2022-08-30T14:24:31.281Z,1.70
2022-08-30T14:27:19.262Z,1.45
2022-08-30T14:30:03.398Z,1.45
2022-08-30T14:32:50.235Z,1.50
2022-08-30T14:35:30.293Z,1.48
2022-08-30T14:38:17.402Z,1.55
2022-08-30T14:40:57.309Z,1.60
2022-08-30T14:43:47.243Z,1.20
2022-08-30T14:46:27.432Z,1.45
2022-08-30T14:49:14.236Z,1.30
2022-08-30T14:51:54.288Z,1.20
2022-08-30T15:54:58.242Z,1.30
2022-08-30T15:57:45.242Z,1.58
2022-08-30T16:00:25.307Z,1.17
2022-08-30T16:03:12.342Z,1.58
2022-08-30T16:05:52.321Z,1.45
2022-08-30T16:08:39.259Z,1.20
2022-08-30T16:11:22.499Z,1.45
2022-08-30T16:14:11.469Z,1.35
2022-08-30T16:16:51.307Z,1.30
2022-08-30T16:19:38.256Z,1.33
2022-08-30T16:22:22.178Z,1.30
2022-08-30T16:25:11.634Z,1.30
2022-08-30T16:27:53.460Z,1.30
2022-08-30T16:30:41.258Z,1.30
2022-08-30T16:33:17.472Z,1.48
2022-08-30T16:36:04.257Z,1.30
2022-08-30T16:38:38.329Z,1.20
2022-08-30T16:41:26.265Z,1.25
2022-08-30T16:44:06.369Z,1.38
2022-08-30T16:46:55.296Z,1.30
2022-08-30T16:49:35.318Z,1.35
2022-08-30T16:52:22.273Z,1.20
2022-08-30T16:55:02.354Z,1.30
2022-08-30T16:57:50.275Z,1.20
2022-08-30T17:00:30.349Z,1.00
2022-08-30T17:03:17.357Z,1.20
2022-08-30T17:06:04.259Z,1.02
2022-08-30T17:08:45.278Z,1.13
2022-08-30T17:11:34.273Z,1.23
2022-08-30T17:14:28.181Z,1.27
2022-08-30T17:17:09.516Z,1.13
2022-08-30T17:19:56.260Z,1.17
2022-08-30T17:22:36.418Z,1.10
2022-08-30T17:25:25.730Z,1.08
2022-08-30T17:28:17.426Z,1.17
2022-08-30T17:31:04.336Z,1.10
2022-08-30T17:33:46.256Z,1.20
2022-08-30T17:36:26.767Z,1.20
2022-08-30T17:39:13.266Z,1.20
2022-08-30T17:41:53.971Z,1.08
2022-08-30T17:44:42.395Z,1.33
2022-08-30T17:47:29.333Z,1.13
2022-08-30T17:50:10.283Z,1.00
2022-08-30T17:52:52.476Z,0.95
2022-08-30T17:55:40.328Z,1.17
2022-08-30T17:58:21.843Z,1.27
2022-08-30T18:01:20.323Z,1.00
2022-08-30T18:04:08.353Z,1.10
2022-08-30T18:06:48.275Z,1.20
2022-08-30T18:09:33.888Z,1.10
2022-08-30T18:12:22.283Z,1.05
2022-08-30T18:15:12.521Z,1.17
2022-08-30T18:17:55.297Z,1.10
2022-08-30T18:20:42.327Z,1.67
2022-08-30T18:23:24.117Z,1.60
2022-08-30T18:26:11.389Z,1.50
2022-08-30T18:28:51.336Z,1.42
2022-08-30T18:31:38.273Z,1.38
2022-08-30T18:34:18.338Z,1.38
2022-08-30T18:37:05.290Z,1.38
2022-08-30T18:39:51.333Z,1.40
2022-08-30T18:42:38.294Z,1.45
2022-08-30T18:45:25.325Z,1.50
2022-08-30T18:48:05.292Z,1.60
2022-08-30T18:50:53.287Z,1.40
2022-08-30T18:53:42.274Z,1.35
2022-08-30T18:56:29.690Z,1.40
2022-08-30T18:59:13.335Z,1.20
2022-08-30T19:02:00.335Z,1.33
2022-08-30T19:04:48.286Z,1.30
2022-08-30T19:07:37.685Z,1.17
2022-08-30T19:10:21.289Z,1.40
2022-08-30T19:13:08.320Z,1.25
2022-08-30T19:15:48.298Z,1.15
2022-08-30T19:18:37.301Z,1.30
2022-08-30T19:21:17.361Z,1.25
2022-08-30T19:24:07.286Z,1.35
2022-08-30T19:26:48.415Z,1.60
2022-08-30T19:29:35.289Z,1.50
2022-08-30T19:32:15.376Z,1.50
2022-08-30T19:35:02.309Z,1.50
2022-08-30T19:37:42.346Z,1.55
2022-08-30T19:40:29.382Z,1.50
2022-08-30T19:43:09.348Z,1.63
2022-08-30T19:46:03.283Z,1.55
2022-08-30T19:48:50.301Z,1.55
2022-08-30T19:51:37.382Z,1.98
2022-08-30T19:54:17.393Z,1.50
2022-08-30T19:56:57.764Z,1.48
2022-08-30T19:59:47.312Z,1.30
2022-08-30T20:02:34.300Z,1.60
2022-08-30T20:05:17.374Z,1.60
2022-08-30T20:08:05.317Z,1.58
2022-08-30T20:10:46.701Z,1.50
2022-08-30T20:13:34.230Z,1.60
2022-08-30T20:16:17.448Z,1.42
2022-08-30T20:19:04.324Z,2.13
2022-08-30T20:21:45.926Z,1.52
2022-08-30T20:24:33.290Z,1.50
2022-08-30T20:27:13.397Z,1.60
2022-08-30T20:30:00.299Z,1.80
2022-08-30T20:32:51.398Z,1.70
2022-08-30T20:35:38.456Z,1.80
2022-08-30T20:38:22.493Z,1.75
2022-08-30T20:41:19.306Z,1.70
2022-08-30T20:44:14.560Z,1.52
2022-08-30T20:47:02.305Z,1.50
2022-08-30T20:49:43.192Z,1.60
2022-08-30T20:52:30.317Z,1.88
2022-08-30T20:55:11.365Z,1.60
2022-08-30T20:57:58.329Z,1.50
2022-08-30T21:00:38.465Z,1.83
2022-08-30T21:03:27.541Z,1.45
2022-08-30T21:06:10.898Z,1.33
2022-08-30T21:08:57.302Z,1.38
2022-08-30T21:11:44.515Z,1.55
2022-08-30T21:14:31.374Z,1.50
2022-08-30T21:17:11.304Z,1.60
2022-08-30T21:20:00.354Z,1.48
2022-08-30T21:22:40.300Z,1.60
2022-08-30T21:25:20.833Z,1.75
2022-08-30T21:28:07.312Z,1.42
2022-08-30T21:30:54.399Z,1.83
2022-08-30T21:33:34.366Z,1.30
2022-08-30T21:36:40.294Z,1.40
2022-08-30T21:39:33.320Z,1.60
2022-08-30T21:42:20.353Z,1.60
2022-08-30T21:45:07.323Z,1.83
2022-08-30T21:47:55.309Z,1.70
2022-08-30T21:50:45.325Z,1.73
2022-08-30T21:53:32.327Z,1.27
2022-08-30T21:56:23.206Z,1.65
2022-08-30T21:59:04.338Z,1.50
2022-08-30T22:01:51.485Z,1.50
2022-08-30T22:04:32.321Z,1.50
2022-08-30T22:07:19.314Z,1.50
2022-08-30T22:09:59.384Z,1.30
2022-08-30T22:12:46.318Z,1.48
2022-08-30T22:15:27.438Z,1.33
2022-08-30T22:18:14.481Z,1.50
2022-08-30T22:20:56.518Z,1.38
2022-08-30T22:23:44.322Z,1.70
2022-08-30T22:26:33.318Z,1.60
2022-08-30T22:29:20.334Z,1.60
2022-08-30T22:32:00.464Z,1.40
2022-08-30T22:34:47.318Z,1.30
2022-08-30T22:37:27.395Z,1.40
2022-08-30T22:40:15.372Z,1.60
2022-08-30T22:42:55.387Z,1.45
2022-08-30T22:45:42.412Z,1.52
2022-08-30T22:48:22.391Z,1.60
2022-08-30T22:51:10.334Z,1.50
2022-08-30T22:53:50.401Z,1.33
2022-08-30T22:56:39.327Z,1.63
2022-08-30T22:59:19.401Z,1.40
2022-08-30T23:02:06.402Z,1.38
2022-08-30T23:04:46.378Z,1.40
2022-08-30T23:07:33.321Z,1.30
2022-08-30T23:10:14.460Z,1.40
2022-08-30T23:13:02.322Z,1.10
2022-08-30T23:15:49.334Z,1.30
2022-08-30T23:18:36.430Z,1.40
2022-08-30T23:21:29.341Z,1.60
2022-08-30T23:24:28.294Z,1.30
2022-08-30T23:27:33.341Z,1.40
2022-08-30T23:33:43.313Z,1.10
2022-08-30T23:36:49.325Z,1.30
2022-08-30T23:39:48.305Z,1.30
2022-08-30T23:42:54.332Z,1.20
2022-08-30T23:46:06.398Z,1.40
2022-08-30T23:49:09.139Z,1.13
2022-08-30T23:52:13.336Z,1.40
2022-08-30T23:55:18.339Z,1.50
